Time;durP1;ratioP1;P1;durP2;ratioP2;P2;SDS_P1;SDS_P2;PMS_P1;PMS_P2;Temp;Humidity;BMP_temperature;BMP_pressure;BME280_temperature;BME280_humidity;BME280_pressure;Samples;Min_cycle;Max_cycle;Signal;HPM_P1;HPM_P2
2022/11/17 00:00:25;;;;;;;6.70;3.55;;;;;;;-2.05;100.00;98023.94;5152134;27;20056;-53
2022/11/17 00:02:51;;;;;;;5.38;4.15;;;;;;;-1.95;100.00;98047.81;5152081;27;20047;-54
2022/11/17 00:05:18;;;;;;;8.43;3.90;;;;;;;-1.94;100.00;98071.69;5152254;27;20054;-53
2022/11/17 00:07:45;;;;;;;6.00;3.40;;;;;;;-2.20;100.00;98076.13;5152158;27;20050;-52
2022/11/17 00:10:12;;;;;;;8.02;4.00;;;;;;;-2.03;100.00;98107.66;5152240;27;20413;-53
2022/11/17 00:15:23;;;;;;;;;;;;;;;-2.28;100.00;98091.09;5152915;27;20107;-53
2022/11/17 00:21:17;;;;;;;8.63;3.90;;;;;;;-2.02;100.00;98077.81;5151857;27;19991;-53
2022/11/17 00:23:22;;;;;;;6.22;3.83;;;;;;;-2.47;100.00;98042.97;5151936;27;20053;-54
2022/11/17 00:25:48;;;;;;;9.27;4.22;;;;;;;-2.19;100.00;98109.94;5151825;27;20536;-53
2022/11/17 00:28:15;;;;;;;10.98;4.53;;;;;;;-2.07;100.00;98112.84;5152053;27;20050;-57
2022/11/17 00:36:09;;;;;;;;;;;;;;;-2.53;100.00;98156.94;5152214;27;20041;-52
2022/11/17 00:38:36;;;;;;;6.38;3.65;;;;;;;-2.53;100.00;98167.66;5151834;27;19923;-54
2022/11/17 00:41:02;;;;;;;6.15;3.80;;;;;;;-2.46;100.00;98202.91;5151645;27;20143;-56
2022/11/17 00:43:29;;;;;;;6.60;4.20;;;;;;;-2.65;100.00;98218.38;5151423;27;20047;-54
2022/11/17 00:45:55;;;;;;;13.65;4.10;;;;;;;-2.49;100.00;98297.47;5151795;27;20115;-53
2022/11/17 00:48:22;;;;;;;14.80;4.82;;;;;;;-2.39;100.00;98291.09;5151611;27;20133;-55
2022/11/17 00:50:48;;;;;;;10.60;5.18;;;;;;;-2.32;100.00;98283.41;5151794;27;20101;-53
2022/11/17 00:53:14;;;;;;;5.85;3.58;;;;;;;-2.38;100.00;98277.34;5151383;27;20046;-54
2022/11/17 00:55:42;;;;;;;10.05;4.70;;;;;;;-2.53;100.00;98252.72;5151914;27;20069;-53
2022/11/17 00:58:09;;;;;;;13.98;4.85;;;;;;;-2.70;100.00;98270.25;5151261;27;20047;-53
2022/11/17 01:00:35;;;;;;;8.23;3.90;;;;;;;-2.44;100.00;98294.66;5151714;27;20049;-52
2022/11/17 01:03:01;;;;;;;8.00;4.53;;;;;;;-2.54;100.00;98312.84;5151367;27;20149;-55
2022/11/17 01:05:28;;;;;;;11.65;5.15;;;;;;;-2.53;100.00;98330.53;5151615;27;20098;-53
2022/11/17 01:07:54;;;;;;;12.38;4.80;;;;;;;-2.67;100.00;98336.72;5151446;27;20841;-53
2022/11/17 01:10:20;;;;;;;7.35;4.65;;;;;;;-2.69;100.00;98340.81;5153820;27;20050;-54
2022/11/17 01:12:47;;;;;;;7.78;3.70;;;;;;;-2.92;100.00;98334.53;5154981;27;20134;-53
2022/11/17 01:15:13;;;;;;;7.53;4.00;;;;;;;-3.08;100.00;98334.00;5154962;27;20047;-55
2022/11/17 01:17:40;;;;;;;12.38;4.85;;;;;;;-2.96;100.00;98382.59;5155008;27;20050;-55
2022/11/17 01:20:08;;;;;;;9.70;4.90;;;;;;;-2.79;100.00;98411.53;5154846;27;20051;-52
2022/11/17 01:22:34;;;;;;;7.03;4.78;;;;;;;-2.64;100.00;98399.72;5155023;27;20055;-52
2022/11/17 01:25:00;;;;;;;11.98;5.05;;;;;;;-2.64;100.00;98378.25;5154723;27;20193;-53
2022/11/17 01:27:26;;;;;;;10.43;4.82;;;;;;;-2.56;100.00;98374.91;5154914;27;20134;-53
2022/11/17 01:29:53;;;;;;;8.65;5.15;;;;;;;-2.78;100.00;98321.13;5154683;27;20050;-53
2022/11/17 01:32:19;;;;;;;11.20;4.82;;;;;;;-2.90;100.00;98318.91;5154941;27;20058;-52
2022/11/17 01:34:46;;;;;;;12.90;5.90;;;;;;;-2.90;100.00;98329.63;5154784;27;20057;-55
2022/11/17 01:37:19;;;;;;;10.38;4.80;;;;;;;-2.93;100.00;98367.78;5154463;27;20051;-52
2022/11/17 01:39:45;;;;;;;9.07;5.05;;;;;;;-2.80;100.00;98379.63;5154801;27;20051;-55
2022/11/17 01:42:14;;;;;;;9.82;4.78;;;;;;;-2.86;100.00;98392.34;5154497;27;20050;-53
2022/11/17 01:44:54;;;;;;;7.75;4.90;;;;;;;-3.10;100.00;98397.84;5154582;27;20138;-52
2022/11/17 01:47:25;;;;;;;8.70;4.72;;;;;;;-2.95;100.00;98461.16;5154389;27;20065;-53
2022/11/17 01:49:55;;;;;;;9.60;5.60;;;;;;;-3.06;100.00;98467.78;5154638;27;20141;-52
2022/11/17 01:52:24;;;;;;;15.05;5.40;;;;;;;-3.05;100.00;98467.47;5154550;27;20660;-53
2022/11/17 01:54:52;;;;;;;5.97;2.88;;;;;;;-3.05;100.00;98455.97;5154631;27;20054;-56
2022/11/17 01:57:23;;;;;;;10.75;4.60;;;;;;;-3.23;100.00;98434.25;5154121;27;20099;-56
2022/11/17 01:59:56;;;;;;;11.88;5.10;;;;;;;-3.05;100.00;98413.84;5154203;27;20065;-53
2022/11/17 02:02:23;;;;;;;3.60;2.92;;;;;;;-3.21;100.00;98370.41;5154095;27;20145;-56
2022/11/17 02:04:59;;;;;;;10.23;4.55;;;;;;;-3.13;100.00;98372.44;5153893;27;20107;-53
2022/11/17 02:07:30;;;;;;;7.50;4.05;;;;;;;-3.25;100.00;98355.22;5154564;27;20150;-53
2022/11/17 02:09:57;;;;;;;9.13;4.22;;;;;;;-3.04;100.00;98351.06;5153990;27;20050;-52
2022/11/17 02:12:26;;;;;;;7.05;3.90;;;;;;;-3.18;100.00;98358.31;5154019;27;20562;-54
2022/11/17 02:14:54;;;;;;;7.63;4.05;;;;;;;-3.36;100.00;98370.69;5153759;27;20074;-54
2022/11/17 02:17:22;;;;;;;7.90;4.28;;;;;;;-3.27;100.00;98402.94;5154221;27;20092;-56
2022/11/17 02:19:58;;;;;;;8.35;4.43;;;;;;;-3.28;100.00;98380.72;5153502;27;20149;-52
2022/11/17 02:23:01;;;;;;;8.70;4.35;;;;;;;-2.97;100.00;98423.09;5153748;27;20490;-53
2022/11/17 02:25:40;;;;;;;9.48;4.63;;;;;;;-3.04;100.00;98387.84;5122001;27;20060;-54
2022/11/17 02:28:17;;;;;;;9.57;4.72;;;;;;;-3.20;100.00;98403.38;5153583;27;20097;-57
2022/11/17 02:30:51;;;;;;;10.60;4.80;;;;;;;-3.21;100.00;98450.81;5153756;27;20481;-55
2022/11/17 02:33:29;;;;;;;8.82;4.72;;;;;;;-3.16;100.00;98464.16;5153802;27;20166;-53
2022/11/17 02:36:02;;;;;;;7.93;4.15;;;;;;;-3.28;100.00;98477.22;5153596;27;20077;-56
2022/11/17 02:38:32;;;;;;;8.00;4.82;;;;;;;-3.22;100.00;98518.16;5153497;27;20081;-56
2022/11/17 02:41:05;;;;;;;12.20;4.65;;;;;;;-3.18;100.00;98524.53;5153461;27;20047;-54
2022/11/17 02:46:28;;;;;;;9.07;5.35;;;;;;;-3.25;100.00;98503.44;5153489;27;20605;-53
2022/11/17 02:48:59;;;;;;;9.35;4.85;;;;;;;-3.21;100.00;98496.41;5153774;27;20046;-54
2022/11/17 02:51:26;;;;;;;11.27;4.75;;;;;;;-2.88;100.00;98483.81;5153248;27;20054;-53
2022/11/17 02:53:55;;;;;;;10.50;5.35;;;;;;;-3.03;100.00;98422.41;5153277;27;20042;-52
2022/11/17 02:56:22;;;;;;;12.88;5.55;;;;;;;-3.49;100.00;98412.41;5153704;27;20046;-54
2022/11/17 02:58:54;;;;;;;9.15;4.38;;;;;;;-3.12;100.00;98480.47;5153204;27;20050;-53
2022/11/17 03:01:38;;;;;;;7.47;5.00;;;;;;;-3.27;100.00;98460.03;5153316;27;20073;-52
2022/11/17 03:04:22;;;;;;;;;;;;;;;-3.16;100.00;98474.91;5153582;27;20596;-52
2022/11/17 03:06:59;;;;;;;6.97;4.55;;;;;;;-3.10;100.00;98443.41;5153133;27;19922;-54
2022/11/17 03:09:37;;;;;;;15.82;5.55;;;;;;;-3.20;100.00;98431.00;5153050;27;20584;-54
2022/11/17 03:12:10;;;;;;;15.93;4.97;;;;;;;-3.33;100.00;98421.00;5153003;27;20509;-54
2022/11/17 03:14:48;;;;;;;9.43;5.30;;;;;;;-3.02;100.00;98458.06;5153489;27;20177;-52
2022/11/17 03:17:21;;;;;;;10.32;4.90;;;;;;;-3.26;100.00;98416.06;5153266;27;20398;-52
2022/11/17 03:19:57;;;;;;;13.05;4.80;;;;;;;-3.38;100.00;98429.91;5153111;27;20189;-54
2022/11/17 03:22:27;;;;;;;9.13;5.20;;;;;;;-3.40;100.00;98456.22;5152875;27;20052;-53
2022/11/17 03:24:57;;;;;;;18.67;5.30;;;;;;;-3.31;100.00;98470.53;5153090;27;20506;-53
2022/11/17 03:27:27;;;;;;;9.07;4.95;;;;;;;-3.43;100.00;98456.81;5152782;27;20100;-53
2022/11/17 03:29:58;;;;;;;10.02;5.47;;;;;;;-3.25;100.00;98468.59;5152665;27;20054;-55
2022/11/17 03:32:27;;;;;;;10.38;4.72;;;;;;;-3.12;100.00;98475.09;5151808;27;20519;-52
2022/11/17 03:34:57;;;;;;;9.25;5.05;;;;;;;-3.51;100.00;98441.38;5152978;27;20398;-52
2022/11/17 03:37:27;;;;;;;14.25;5.97;;;;;;;-3.59;100.00;98458.91;5152798;27;20050;-52
2022/11/17 03:40:00;;;;;;;10.07;5.75;;;;;;;-3.49;100.00;98513.44;5152548;27;20053;-54
2022/11/17 03:42:30;;;;;;;9.70;5.60;;;;;;;-3.26;100.00;98560.03;5152806;27;20138;-52
2022/11/17 03:45:03;;;;;;;8.93;5.43;;;;;;;-3.26;100.00;98531.34;5152496;27;20047;-55
2022/11/17 03:47:32;;;;;;;10.50;5.45;;;;;;;-3.42;100.00;98509.31;5153039;27;20046;-54
2022/11/17 03:50:03;;;;;;;9.20;5.03;;;;;;;-3.41;100.00;98512.78;5152523;27;20047;-52
2022/11/17 03:52:29;;;;;;;12.40;4.63;;;;;;;-3.43;100.00;98513.09;5152332;27;20049;-53
2022/11/17 03:54:56;;;;;;;10.57;5.18;;;;;;;-3.65;100.00;98491.41;5152560;27;20145;-53
2022/11/17 03:57:30;;;;;;;7.40;4.97;;;;;;;-3.66;100.00;98520.06;5152221;27;20054;-56
2022/11/17 04:00:01;;;;;;;10.57;4.88;;;;;;;-3.59;100.00;98568.75;5152425;27;20505;-54
2022/11/17 04:02:28;;;;;;;8.45;5.03;;;;;;;-3.65;100.00;98596.66;5152120;27;20149;-57
2022/11/17 04:05:06;;;;;;;7.75;5.07;;;;;;;-3.33;100.00;98633.56;5152123;27;20191;-54
2022/11/17 04:07:32;;;;;;;9.52;5.45;;;;;;;-3.50;100.00;98643.91;5152142;27;20103;-55
2022/11/17 04:09:59;;;;;;;10.25;5.45;;;;;;;-3.36;100.00;98649.41;5152503;27;20054;-53
2022/11/17 04:17:54;;;;;;;9.80;4.70;;;;;;;-3.62;100.00;98656.94;5152545;27;20187;-57
2022/11/17 04:20:21;;;;;;;7.95;4.47;;;;;;;-4.06;100.00;98639.94;5151828;27;20432;-53
2022/11/17 04:23:05;;;;;;;12.07;4.45;;;;;;;-3.71;100.00;98688.09;5151974;27;20061;-56
2022/11/17 04:31:01;;;;;;;;;;;;;;;-3.72;100.00;98759.63;5152410;27;20049;-54
2022/11/17 04:33:28;;;;;;;15.48;4.72;;;;;;;-3.65;100.00;98762.78;5151731;27;19927;-55
2022/11/17 04:35:54;;;;;;;8.15;5.22;;;;;;;-3.72;100.00;98777.59;5152081;27;20082;-53
2022/11/17 04:38:20;;;;;;;10.88;5.05;;;;;;;-3.83;100.00;98803.66;5151695;27;20054;-53
2022/11/17 04:43:28;;;;;;;9.43;4.57;;;;;;;-3.58;100.00;98810.69;5150297;27;20082;-55
2022/11/17 04:45:58;;;;;;;7.30;3.97;;;;;;;-3.98;100.00;98750.19;5151782;27;20050;-54
2022/11/17 04:48:25;;;;;;;6.53;4.30;;;;;;;-3.92;100.00;98794.59;5151747;27;20224;-53
2022/11/17 04:50:53;;;;;;;11.48;4.43;;;;;;;-3.57;100.00;98817.63;5151733;27;20042;-58
2022/11/17 04:53:19;;;;;;;13.93;5.45;;;;;;;-3.52;100.00;98776.59;5151848;27;20161;-53
2022/11/17 04:55:46;;;;;;;11.73;5.32;;;;;;;-3.29;100.00;98759.78;5151647;27;20047;-53
2022/11/17 04:58:14;;;;;;;17.35;5.78;;;;;;;-3.36;100.00;98705.69;5152090;27;20055;-55
2022/11/17 05:00:41;;;;;;;9.43;5.35;;;;;;;-3.50;100.00;98712.78;5151549;27;20057;-54
2022/11/17 05:03:08;;;;;;;8.05;4.95;;;;;;;-3.67;100.00;98715.91;5151733;27;20145;-53
2022/11/17 05:05:35;;;;;;;11.50;5.10;;;;;;;-3.76;100.00;98706.91;5151440;27;20074;-53
2022/11/17 05:08:01;;;;;;;10.10;5.65;;;;;;;-3.64;100.00;98710.78;5151654;27;20054;-54
2022/11/17 05:13:21;;;;;;;13.55;5.47;;;;;;;-3.84;100.00;98714.44;5150764;27;20065;-56
2022/11/17 05:18:32;;;;;;;8.75;5.43;;;;;;;-3.62;100.00;98686.41;5151134;27;20046;-53
2022/11/17 05:21:01;;;;;;;11.93;6.13;;;;;;;-3.38;100.00;98687.22;5151222;27;20133;-54
2022/11/17 05:26:12;;;;;;;;;;;;;;;-3.27;100.00;98617.41;5151713;27;20665;-52
2022/11/17 05:28:38;;;;;;;9.80;5.88;;;;;;;-3.26;100.00;98581.47;5151112;27;19927;-54
2022/11/17 05:31:05;;;;;;;11.25;6.07;;;;;;;-3.20;100.00;98558.84;5151251;27;20153;-53
2022/11/17 05:33:31;;;;;;;19.30;6.10;;;;;;;-3.28;100.00;98522.00;5151165;27;20050;-54
2022/11/17 05:35:57;;;;;;;11.70;5.80;;;;;;;-3.30;100.00;98516.91;5151030;27;20079;-55
2022/11/17 05:38:24;;;;;;;14.45;6.05;;;;;;;-3.33;100.00;98504.91;5150676;27;20110;-54
2022/11/17 05:40:51;;;;;;;11.15;5.78;;;;;;;-3.67;100.00;98491.66;5150797;27;20053;-55
2022/11/17 05:43:17;;;;;;;11.52;5.53;;;;;;;-3.48;100.00;98566.72;5150751;27;20055;-56
2022/11/17 05:45:45;;;;;;;12.27;5.80;;;;;;;-3.34;100.00;98567.63;5150661;27;20051;-56
2022/11/17 05:48:11;;;;;;;13.27;5.85;;;;;;;-3.52;100.00;98541.59;5150650;27;20054;-53
2022/11/17 05:50:37;;;;;;;12.23;5.28;;;;;;;-3.42;100.00;98605.78;5150618;27;20160;-55
2022/11/17 05:53:04;;;;;;;10.43;6.00;;;;;;;-3.23;100.00;98559.44;5150555;27;20146;-55
2022/11/17 05:55:31;;;;;;;8.43;5.10;;;;;;;-3.53;100.00;98525.78;5151818;27;20125;-57
2022/11/17 05:58:02;;;;;;;11.18;5.68;;;;;;;-3.41;100.00;98548.41;5154038;27;20050;-56
2022/11/17 06:00:30;;;;;;;25.17;6.10;;;;;;;-3.14;100.00;98536.25;5154664;27;20050;-58
2022/11/17 06:02:59;;;;;;;11.70;5.32;;;;;;;-3.39;100.00;98454.34;5154035;27;20054;-53
2022/11/17 06:05:26;;;;;;;10.07;5.63;;;;;;;-3.57;100.00;98466.63;5154261;27;20049;-53
2022/11/17 06:07:56;;;;;;;9.38;5.78;;;;;;;-3.58;100.00;98500.66;5154244;27;20100;-54
2022/11/17 06:10:23;;;;;;;9.57;5.03;;;;;;;-3.44;100.00;98511.47;5154229;27;20145;-53
2022/11/17 06:12:50;;;;;;;15.63;5.15;;;;;;;-3.65;100.00;98523.53;5153760;27;20568;-54
2022/11/17 06:15:16;;;;;;;13.07;5.22;;;;;;;-3.44;100.00;98532.91;5153760;27;20051;-54
2022/11/17 06:17:49;;;;;;;11.13;4.65;;;;;;;-3.10;100.00;98561.41;5153846;27;20043;-54
2022/11/17 06:20:19;;;;;;;11.88;5.18;;;;;;;-3.16;100.00;98500.91;5153812;27;20058;-56
2022/11/17 06:22:47;;;;;;;10.85;5.45;;;;;;;-3.08;100.00;98474.22;5153765;27;20125;-55
2022/11/17 06:25:14;;;;;;;7.75;4.60;;;;;;;-3.55;100.00;98430.44;5153543;27;20053;-56
2022/11/17 06:27:41;;;;;;;12.55;5.10;;;;;;;-3.62;100.00;98456.78;5153523;27;20053;-51
2022/11/17 06:30:08;;;;;;;11.32;4.95;;;;;;;-3.46;100.00;98499.47;5153472;27;20058;-56
2022/11/17 06:32:39;;;;;;;11.13;4.82;;;;;;;-3.33;100.00;98520.97;5153640;27;20054;-56
2022/11/17 06:35:08;;;;;;;8.68;5.47;;;;;;;-3.36;100.00;98508.16;5153367;27;20053;-57
2022/11/17 06:37:34;;;;;;;9.95;5.65;;;;;;;-3.17;100.00;98477.84;5153659;27;20049;-55
2022/11/17 06:40:00;;;;;;;8.57;5.18;;;;;;;-3.38;100.00;98405.78;5153389;27;20082;-58
2022/11/17 06:45:09;;;;;;;10.05;5.45;;;;;;;-3.19;100.00;98405.78;5152423;27;20055;-62
2022/11/17 06:47:36;;;;;;;14.27;6.13;;;;;;;-3.41;100.00;98344.72;5153167;27;20089;-61
2022/11/17 06:50:02;;;;;;;16.73;5.35;;;;;;;-3.46;100.00;98379.66;5153340;27;20082;-54
2022/11/17 06:52:28;;;;;;;9.18;5.10;;;;;;;-3.25;100.00;98436.44;5153186;27;20388;-54
2022/11/17 06:54:55;;;;;;;16.23;5.25;;;;;;;-3.55;100.00;98384.88;5153428;27;20432;-53
2022/11/17 06:57:21;;;;;;;9.00;4.85;;;;;;;-3.28;100.00;98409.41;5153339;27;20505;-56
2022/11/17 06:59:47;;;;;;;8.15;4.50;;;;;;;-3.21;100.00;98381.13;5153529;27;20126;-52
2022/11/17 07:02:14;;;;;;;9.07;4.10;;;;;;;-3.33;100.00;98330.69;5152971;27;20047;-53
2022/11/17 07:04:40;;;;;;;11.88;4.15;;;;;;;-3.52;100.00;98339.84;5153293;27;20519;-53
2022/11/17 07:07:07;;;;;;;11.27;5.15;;;;;;;-3.09;100.00;98367.28;5151648;27;20051;-52
2022/11/17 07:09:33;;;;;;;8.93;4.93;;;;;;;-3.62;100.00;98325.53;5153167;27;20042;-54
2022/11/17 07:11:59;;;;;;;11.55;5.53;;;;;;;-3.48;100.00;98364.97;5153037;27;20065;-54
2022/11/17 07:14:25;;;;;;;14.55;5.88;;;;;;;-3.27;100.00;98384.19;5152918;27;20054;-56
2022/11/17 07:16:51;;;;;;;8.45;5.75;;;;;;;-3.42;100.00;98380.66;5152806;27;20046;-55
2022/11/17 07:19:18;;;;;;;10.15;5.68;;;;;;;-3.06;100.00;98365.91;5152601;27;20047;-53
2022/11/17 07:21:45;;;;;;;9.65;4.38;;;;;;;-3.06;100.00;98337.19;5152566;27;20142;-54
2022/11/17 07:24:11;;;;;;;17.60;4.45;;;;;;;-3.38;100.00;98321.91;5152594;27;20056;-52
2022/11/17 07:26:37;;;;;;;7.32;5.25;;;;;;;-3.16;100.00;98323.97;5152930;27;20089;-56
2022/11/17 07:29:04;;;;;;;11.23;5.35;;;;;;;-3.70;100.00;98317.34;5152799;27;20861;-52
2022/11/17 07:31:30;;;;;;;9.00;4.90;;;;;;;-3.27;100.00;98368.09;5152957;27;20047;-53
2022/11/17 07:33:56;;;;;;;12.43;5.22;;;;;;;-3.45;100.00;98333.03;5152646;27;20053;-55
2022/11/17 07:36:23;;;;;;;12.82;5.05;;;;;;;-3.48;100.00;98341.63;5152674;27;20133;-55
2022/11/17 07:38:49;;;;;;;11.60;4.88;;;;;;;-3.87;100.00;98358.03;5152385;27;20065;-56
2022/11/17 07:41:16;;;;;;;11.55;5.57;;;;;;;-3.80;100.00;98393.28;5152607;27;20042;-56
2022/11/17 07:43:42;;;;;;;10.18;5.03;;;;;;;-3.58;100.00;98430.22;5152398;27;20496;-52
2022/11/17 07:46:11;;;;;;;8.52;5.43;;;;;;;-3.56;100.00;98434.19;5152127;27;20043;-53
2022/11/17 07:48:38;;;;;;;10.02;5.28;;;;;;;-3.26;100.00;98452.81;5152330;27;20055;-52
2022/11/17 07:51:05;;;;;;;10.35;6.13;;;;;;;-3.22;100.00;98453.81;5152142;27;20054;-52
2022/11/17 07:53:33;;;;;;;14.25;6.47;;;;;;;-2.75;100.00;98420.59;5152196;27;20057;-52
2022/11/17 07:56:03;;;;;;;9.48;5.47;;;;;;;-3.23;100.00;98339.63;5152119;27;20090;-53
2022/11/17 07:58:29;;;;;;;12.68;6.13;;;;;;;-2.93;100.00;98311.47;5152363;27;20470;-53
2022/11/17 08:00:55;;;;;;;16.90;7.00;;;;;;;-2.89;100.00;98270.34;5152245;27;20046;-54
2022/11/17 08:03:23;;;;;;;12.88;6.13;;;;;;;-2.64;100.00;98238.72;5152404;27;20114;-52
2022/11/17 08:05:49;;;;;;;10.18;6.00;;;;;;;-2.85;100.00;98182.81;5152393;27;20174;-54
2022/11/17 08:08:16;;;;;;;14.07;5.70;;;;;;;-2.78;100.00;98211.94;5152382;27;20099;-52
2022/11/17 08:10:42;;;;;;;11.05;5.80;;;;;;;-2.86;100.00;98234.88;5152153;27;20069;-56
2022/11/17 08:13:10;;;;;;;14.93;6.45;;;;;;;-2.79;100.00;98245.22;5151996;27;20047;-54
2022/11/17 08:15:36;;;;;;;10.98;5.97;;;;;;;-2.75;100.00;98230.09;5152046;27;20477;-52
2022/11/17 08:18:03;;;;;;;15.32;6.88;;;;;;;-2.71;100.00;98198.09;5151445;27;20086;-53
2022/11/17 08:20:29;;;;;;;11.77;7.00;;;;;;;-2.98;100.00;98180.16;5152376;27;20085;-52
2022/11/17 08:22:56;;;;;;;8.55;4.55;;;;;;;-2.63;100.00;98189.34;5151785;27;20057;-54
2022/11/17 08:25:24;;;;;;;13.57;5.63;;;;;;;-2.92;100.00;98152.16;5151839;27;20107;-52
2022/11/17 08:27:54;;;;;;;8.70;5.45;;;;;;;-2.55;100.00;98177.91;5151887;27;20098;-54
2022/11/17 08:30:21;;;;;;;10.52;4.85;;;;;;;-2.93;100.00;98164.78;5151838;27;20161;-53
2022/11/17 08:32:48;;;;;;;9.13;5.03;;;;;;;-2.79;100.00;98194.25;5151683;27;20054;-54
2022/11/17 08:35:14;;;;;;;14.30;5.53;;;;;;;-2.84;100.00;98191.66;5151698;27;20053;-54
2022/11/17 08:37:41;;;;;;;11.88;4.32;;;;;;;-2.74;100.00;98193.34;5151595;27;20046;-56
2022/11/17 08:40:08;;;;;;;9.00;4.28;;;;;;;-2.76;100.00;98200.91;5151705;27;20576;-56
2022/11/17 08:42:35;;;;;;;7.13;4.70;;;;;;;-2.94;100.00;98178.47;5151929;27;20137;-52
2022/11/17 08:45:02;;;;;;;9.10;4.93;;;;;;;-2.84;100.00;98211.22;5151697;27;20516;-53
2022/11/17 08:47:29;;;;;;;8.15;5.55;;;;;;;-2.76;100.00;98182.13;5151435;27;20162;-52
2022/11/17 08:49:55;;;;;;;8.38;5.40;;;;;;;-3.17;100.00;98191.00;5151649;27;20089;-52
2022/11/17 08:52:21;;;;;;;8.00;5.25;;;;;;;-3.09;100.00;98234.00;5151890;27;20050;-52
2022/11/17 08:54:49;;;;;;;8.40;5.35;;;;;;;-3.01;100.00;98250.47;5151618;27;20058;-54
2022/11/17 08:57:16;;;;;;;10.48;5.95;;;;;;;-3.15;100.00;98258.53;5151579;27;20057;-54
2022/11/17 08:59:42;;;;;;;10.27;5.75;;;;;;;-3.03;100.00;98290.19;5151747;27;20448;-53
2022/11/17 09:02:11;;;;;;;12.75;5.55;;;;;;;-2.94;100.00;98258.91;5151408;27;20050;-56
2022/11/17 09:04:37;;;;;;;6.35;5.15;;;;;;;-3.13;100.00;98219.59;5151585;27;20429;-52
2022/11/17 09:07:03;;;;;;;10.48;5.13;;;;;;;-3.22;100.00;98223.28;5151628;27;20139;-55
2022/11/17 09:09:30;;;;;;;6.82;4.85;;;;;;;-3.20;100.00;98208.50;5151406;27;20043;-53
2022/11/17 09:11:57;;;;;;;9.65;4.82;;;;;;;-3.00;100.00;98212.66;5151190;27;20067;-56
2022/11/17 09:14:23;;;;;;;8.85;4.90;;;;;;;-2.87;100.00;98209.16;5151239;27;20055;-53
2022/11/17 09:16:49;;;;;;;8.90;4.97;;;;;;;-2.82;100.00;98189.47;5151293;27;20050;-55
2022/11/17 09:19:16;;;;;;;10.93;5.00;;;;;;;-2.76;100.00;98152.63;5151280;27;20051;-52
2022/11/17 09:21:43;;;;;;;14.75;4.90;;;;;;;-3.13;100.00;98165.19;5150819;27;20046;-53
2022/11/17 09:24:10;;;;;;;8.35;4.82;;;;;;;-3.02;100.00;98197.94;5151145;27;20042;-55
2022/11/17 09:26:39;;;;;;;10.43;5.07;;;;;;;-2.76;100.00;98212.44;5151218;27;20057;-56
2022/11/17 09:29:06;;;;;;;18.75;5.35;;;;;;;-2.76;100.00;98217.00;5151374;27;20047;-53
2022/11/17 09:31:33;;;;;;;10.10;4.95;;;;;;;-2.75;100.00;98197.13;5153996;27;20057;-53
2022/11/17 09:33:59;;;;;;;9.98;5.10;;;;;;;-2.66;100.00;98181.91;5155084;27;20086;-52
2022/11/17 09:36:26;;;;;;;9.27;4.57;;;;;;;-2.71;100.00;98195.41;5154566;27;20049;-53
2022/11/17 09:38:52;;;;;;;8.27;4.53;;;;;;;-2.56;100.00;98170.94;5154391;27;20142;-54
2022/11/17 09:41:25;;;;;;;7.78;4.15;;;;;;;-2.66;100.00;98107.56;5154419;27;20142;-55
2022/11/17 09:44:01;;;;;;;4.32;2.97;;;;;;;-2.53;100.00;98115.84;5154401;27;20491;-52
2022/11/17 09:46:36;;;;;;;6.28;4.20;;;;;;;-2.67;100.00;98126.63;5154384;27;20054;-53
2022/11/17 09:49:11;;;;;;;11.05;3.78;;;;;;;-2.66;100.00;98169.28;5154613;27;20053;-52
2022/11/17 09:51:42;;;;;;;8.15;4.40;;;;;;;-2.91;100.00;98180.56;5154560;27;20133;-52
2022/11/17 09:54:17;;;;;;;9.35;4.22;;;;;;;-2.64;100.00;98198.47;5154183;27;20053;-53
2022/11/17 09:56:46;;;;;;;7.32;3.55;;;;;;;-2.74;100.00;98171.88;5154276;27;20053;-54
2022/11/17 09:59:15;;;;;;;5.47;3.55;;;;;;;-2.61;100.00;98146.91;5154681;27;20131;-53
2022/11/17 10:01:41;;;;;;;5.82;3.78;;;;;;;-2.30;100.00;98106.72;5152029;27;20055;-53
2022/11/17 10:04:11;;;;;;;7.88;4.07;;;;;;;-2.22;100.00;98056.88;5154324;27;20050;-56
2022/11/17 10:06:41;;;;;;;4.07;2.92;;;;;;;-2.87;100.00;98005.31;5154355;27;20055;-56
2022/11/17 10:09:19;;;;;;;5.40;3.40;;;;;;;-3.18;100.00;98039.28;5154365;27;20058;-57
2022/11/17 10:11:46;;;;;;;5.55;4.22;;;;;;;-2.74;100.00;98113.66;5154160;27;20042;-53
2022/11/17 10:14:15;;;;;;;7.30;3.65;;;;;;;-2.77;100.00;98113.47;5154145;27;20051;-55
2022/11/17 10:16:44;;;;;;;6.18;4.03;;;;;;;-2.88;100.00;98126.31;5154169;27;20078;-51
2022/11/17 10:19:15;;;;;;;7.50;4.00;;;;;;;-2.39;100.00;98138.88;5154018;27;20107;-56
2022/11/17 10:21:42;;;;;;;12.55;4.88;;;;;;;-2.51;100.00;98113.66;5153883;27;20107;-53
2022/11/17 10:24:08;;;;;;;6.75;4.10;;;;;;;-2.38;100.00;98102.88;5154025;27;20508;-54
2022/11/17 10:26:45;;;;;;;10.57;4.10;;;;;;;-2.70;100.00;98042.22;5154008;27;20053;-53
2022/11/17 10:29:13;;;;;;;7.82;4.75;;;;;;;-2.29;100.00;98069.94;5154021;27;20488;-53
2022/11/17 10:31:41;;;;;;;4.55;4.10;;;;;;;-1.72;100.00;98033.22;5153967;27;20050;-54
2022/11/17 10:34:10;;;;;;;11.52;4.47;;;;;;;-1.92;100.00;97929.03;5154016;27;20077;-54
2022/11/17 10:36:44;;;;;;;8.85;4.82;;;;;;;-2.05;100.00;97916.50;5153791;27;20050;-57
2022/11/17 10:39:32;;;;;;;6.65;4.65;;;;;;;-2.20;100.00;97918.53;5154050;27;20053;-54
2022/11/17 10:41:59;;;;;;;8.18;4.30;;;;;;;-1.73;100.00;97904.56;5153485;27;20053;-59
2022/11/17 10:44:29;;;;;;;8.15;4.65;;;;;;;-2.16;100.00;97856.94;5153183;27;20070;-57
2022/11/17 10:46:57;;;;;;;7.57;4.35;;;;;;;-1.96;100.00;97858.25;5153360;27;20047;-56
2022/11/17 10:49:25;;;;;;;11.98;4.47;;;;;;;-2.16;100.00;97847.00;5153062;27;20084;-54
2022/11/17 10:52:04;;;;;;;10.75;4.85;;;;;;;-2.47;100.00;97857.00;5153331;27;20042;-52
2022/11/17 10:54:31;;;;;;;7.30;4.93;;;;;;;-2.18;100.00;97886.00;5153396;27;20051;-53
2022/11/17 10:56:59;;;;;;;12.27;5.45;;;;;;;-2.11;100.00;97926.59;5153498;27;20065;-55
2022/11/17 10:59:29;;;;;;;7.80;5.57;;;;;;;-1.90;100.00;97897.25;5153462;27;20046;-55
2022/11/17 11:01:55;;;;;;;14.25;5.68;;;;;;;-1.64;100.00;97856.19;5153050;27;20079;-52
2022/11/17 11:04:34;;;;;;;13.07;4.88;;;;;;;-1.62;100.00;97803.72;5152975;27;20050;-54
2022/11/17 11:07:09;;;;;;;8.65;5.13;;;;;;;-2.10;100.00;97750.94;5153030;27;20051;-57
2022/11/17 11:09:41;;;;;;;7.55;4.40;;;;;;;-2.04;100.00;97776.53;5152998;27;20046;-53
2022/11/17 11:12:12;;;;;;;12.73;4.65;;;;;;;-1.94;100.00;97762.78;5152993;27;20086;-57
2022/11/17 11:14:41;;;;;;;9.38;5.32;;;;;;;-1.85;100.00;97757.44;5153202;27;20051;-55
2022/11/17 11:17:11;;;;;;;13.60;4.85;;;;;;;-1.83;100.00;97810.81;5152824;27;20054;-57
2022/11/17 11:19:39;;;;;;;7.35;5.40;;;;;;;-1.91;100.00;97807.81;5153084;27;20188;-57
2022/11/17 11:22:30;;;;;;;8.98;4.63;;;;;;;-1.67;100.00;97785.06;5152682;27;20562;-53
2022/11/17 11:25:08;;;;;;;12.15;4.80;;;;;;;-1.46;100.00;97777.13;5148815;27;20072;-55
2022/11/17 11:27:48;;;;;;;11.88;4.93;;;;;;;-1.55;100.00;97750.25;5152682;27;20046;-53
2022/11/17 11:30:16;;;;;;;6.80;4.68;;;;;;;-1.31;100.00;97752.41;5152616;27;20119;-55
2022/11/17 11:32:54;;;;;;;5.80;4.50;;;;;;;-1.47;100.00;97735.22;5152661;27;20062;-52
2022/11/17 11:35:54;;;;;;;6.45;4.28;;;;;;;-1.61;100.00;97730.03;5152548;27;20050;-52
2022/11/17 11:38:42;;;;;;;4.57;3.55;;;;;;;-2.04;100.00;97757.75;5152622;27;20054;-54
2022/11/17 11:41:22;;;;;;;3.72;3.00;;;;;;;-2.28;100.00;97803.84;5152711;27;20601;-54
2022/11/17 11:44:03;;;;;;;9.57;3.60;;;;;;;-2.17;100.00;97847.28;5152204;27;20137;-52
2022/11/17 11:46:41;;;;;;;6.22;3.75;;;;;;;-1.85;100.00;97859.50;5152307;27;20047;-47
2022/11/17 11:49:18;;;;;;;3.47;2.60;;;;;;;-1.62;100.00;97821.75;5152132;27;20047;-47
2022/11/17 11:51:48;;;;;;;3.50;3.17;;;;;;;-1.86;100.00;97784.63;5152007;27;20505;-50
2022/11/17 11:54:25;;;;;;;4.22;3.35;;;;;;;-1.56;100.00;97794.38;5151196;27;20042;-51
2022/11/17 11:56:54;;;;;;;5.05;2.80;;;;;;;-1.98;100.00;97729.63;5151895;27;20098;-48
2022/11/17 11:59:26;;;;;;;7.53;3.83;;;;;;;-1.83;100.00;97754.41;5151962;27;20046;-47
2022/11/17 12:02:02;;;;;;;7.90;3.30;;;;;;;-2.18;100.00;97744.47;5151767;27;20419;-50
2022/11/17 12:04:37;;;;;;;3.90;3.10;;;;;;;-2.21;100.00;97798.81;5152244;27;20050;-47
2022/11/17 12:07:12;;;;;;;7.20;3.80;;;;;;;-1.92;100.00;97826.94;5151624;27;20510;-48
2022/11/17 12:09:59;;;;;;;8.40;3.83;;;;;;;-1.85;100.00;97835.31;5151599;27;20216;-50